Time,TemperatureF,DewpointF,PressureIn,WindDirection,WindDirectionDegrees,WindSpeedMPH,WindSpeedGustMPH,Humidity,HourlyPrecipIn,Conditions,Clouds,dailyrainin,SoftwareType,DateUTC
2013-05-20 06:45:00,77.7,73.5,30.02,ESE,112,0.0,1.0,87,0.00,,,0.00,VWS V14.01,2013-05-20 10:45:00,
2013-05-20 07:12:00,77.7,73.5,30.02,ESE,112,0.0,1.0,87,0.00,,,0.00,VWS V14.01,2013-05-20 11:12:00,
2013-05-20 07:13:00,78.0,73.5,30.02,ESE,119,0.0,0.0,86,0.00,,,0.00,VWS V14.01,2013-05-20 11:13:00,
2013-05-20 07:18:00,78.1,73.2,30.03,ESE,120,0.0,2.0,85,0.00,,,0.00,VWS V14.01,2013-05-20 11:18:00,
2013-05-20 07:23:00,78.2,73.3,30.03,ESE,123,0.0,3.0,85,0.00,,,0.00,VWS V14.01,2013-05-20 11:23:00,
2013-05-20 07:28:00,78.4,73.5,30.03,ESE,123,1.0,3.0,85,0.00,,,0.00,VWS V14.01,2013-05-20 11:28:00,
2013-05-20 07:33:00,78.5,73.6,30.03,ESE,123,1.0,1.0,85,0.00,,,0.00,VWS V14.01,2013-05-20 11:33:00,
2013-05-20 07:38:00,78.7,73.8,30.04,ESE,122,0.0,3.0,85,0.00,,,0.00,VWS V14.01,2013-05-20 11:38:00,
2013-05-20 07:43:00,78.9,73.7,30.04,SE,133,1.0,3.0,84,0.00,,,0.00,VWS V14.01,2013-05-20 11:43:00,
2013-05-20 07:48:00,79.0,73.8,30.04,SE,129,0.0,0.0,84,0.00,,,0.00,VWS V14.01,2013-05-20 11:48:00,
2013-05-20 07:53:00,79.2,73.6,30.05,SE,131,0.0,3.0,83,0.00,,,0.00,VWS V14.01,2013-05-20 11:53:00,
2013-05-20 07:58:00,79.4,73.8,30.05,SSE,148,2.0,4.0,83,0.00,,,0.00,VWS V14.01,2013-05-20 11:58:00,
2013-05-20 08:03:00,79.6,74.0,30.05,SSE,162,1.0,3.0,83,0.00,,,0.00,VWS V14.01,2013-05-20 12:03:00,
2013-05-20 08:08:00,79.8,73.8,30.05,SE,124,1.0,3.0,82,0.00,,,0.00,VWS V14.01,2013-05-20 12:08:00,
2013-05-20 08:13:00,80.0,73.7,30.05,ESE,114,2.0,4.0,81,0.00,,,0.00,VWS V14.01,2013-05-20 12:13:00,
2013-05-20 08:18:00,80.3,73.6,30.05,SE,134,0.0,3.0,80,0.00,,,0.00,VWS V14.01,2013-05-20 12:18:00,
2013-05-20 08:23:00,80.6,73.5,30.05,SE,134,3.0,4.0,79,0.00,,,0.00,VWS V14.01,2013-05-20 12:23:00,
2013-05-20 08:28:00,80.8,73.3,30.05,SSE,157,2.0,5.0,78,0.00,,,0.00,VWS V14.01,2013-05-20 12:28:00,
2013-05-20 08:33:00,81.0,73.5,30.05,SSE,155,3.0,6.0,78,0.00,,,0.00,VWS V14.01,2013-05-20 12:33:00,
2013-05-20 08:38:00,81.0,73.5,30.05,SE,126,0.0,6.0,78,0.00,,,0.00,VWS V14.01,2013-05-20 12:38:00,
2013-05-20 08:43:00,81.3,73.8,30.05,SE,127,1.0,7.0,78,0.00,,,0.00,VWS V14.01,2013-05-20 12:43:00,
2013-05-20 08:48:00,81.4,73.9,30.05,ESE,119,1.0,3.0,78,0.00,,,0.00,VWS V14.01,2013-05-20 12:48:00,
2013-05-20 08:53:00,81.6,74.1,30.06,East,86,6.0,8.0,78,0.00,,,0.00,VWS V14.01,2013-05-20 12:53:00,
2013-05-20 08:58:00,80.6,72.7,30.06,ENE,76,1.0,8.0,77,0.00,,,0.00,VWS V14.01,2013-05-20 12:58:00,
2013-05-20 09:03:00,80.0,72.5,30.06,ENE,65,2.0,4.0,78,0.00,,,0.00,VWS V14.01,2013-05-20 13:03:00,
2013-05-20 09:08:00,79.5,72.4,30.06,ENE,76,2.0,8.0,79,0.00,,,0.00,VWS V14.01,2013-05-20 13:08:00,
2013-05-20 09:12:00,78.8,72.8,30.07,SE,124,2.0,10.0,82,0.00,,,0.00,VWS V14.01,2013-05-20 13:12:00,
2013-05-20 09:17:00,77.3,70.3,30.06,East,101,11.0,12.0,79,0.00,,,0.00,VWS V14.01,2013-05-20 13:17:00,
2013-05-20 09:22:00,76.1,70.2,30.07,NE,34,3.0,13.0,82,0.03,,,0.03,VWS V14.01,2013-05-20 13:22:00,
2013-05-20 09:27:00,75.2,70.0,30.06,NE,55,4.0,13.0,84,0.06,,,0.06,VWS V14.01,2013-05-20 13:27:00,
2013-05-20 09:32:00,74.9,70.4,30.06,ENE,67,1.0,3.0,86,0.08,,,0.08,VWS V14.01,2013-05-20 13:32:00,
2013-05-20 09:37:00,74.9,70.8,30.06,East,82,2.0,3.0,87,0.08,,,0.08,VWS V14.01,2013-05-20 13:37:00,
2013-05-20 09:42:00,75.0,71.2,30.06,NE,55,0.0,3.0,88,0.08,,,0.08,VWS V14.01,2013-05-20 13:42:00,
2013-05-20 09:47:00,75.6,72.5,30.05,NE,55,0.0,0.0,90,0.08,,,0.08,VWS V14.01,2013-05-20 13:47:00,
2013-05-20 09:52:00,76.2,73.4,30.06,ENE,74,0.0,1.0,91,0.08,,,0.08,VWS V14.01,2013-05-20 13:52:00,
2013-05-20 09:57:00,76.4,73.2,30.07,ESE,111,2.0,9.0,90,0.08,,,0.08,VWS V14.01,2013-05-20 13:57:00,
2013-05-20 10:02:00,76.1,72.6,30.06,NE,36,1.0,5.0,89,0.08,,,0.08,VWS V14.01,2013-05-20 14:02:00,
2013-05-20 10:07:00,76.1,72.6,30.07,ENE,57,2.0,7.0,89,0.08,,,0.08,VWS V14.01,2013-05-20 14:07:00,
2013-05-20 10:12:00,76.0,72.5,30.06,ENE,71,2.0,9.0,89,0.08,,,0.08,VWS V14.01,2013-05-20 14:12:00,
2013-05-20 10:17:00,76.0,72.9,30.06,SSW,198,2.0,7.0,90,0.08,,,0.08,VWS V14.01,2013-05-20 14:17:00,
2013-05-20 10:22:00,76.0,72.9,30.07,East,90,2.0,9.0,90,0.08,,,0.08,VWS V14.01,2013-05-20 14:22:00,
2013-05-20 10:27:00,76.0,72.9,30.07,ESE,113,2.0,9.0,90,0.08,,,0.08,VWS V14.01,2013-05-20 14:27:00,
2013-05-20 10:32:00,76.1,72.3,30.07,ESE,119,1.0,7.0,88,0.01,,,0.08,VWS V14.01,2013-05-20 14:32:00,
2013-05-20 10:37:00,76.2,72.1,30.06,SSE,151,2.0,7.0,87,0.01,,,0.08,VWS V14.01,2013-05-20 14:37:00,
2013-05-20 10:42:00,77.3,73.8,30.06,SSE,150,2.0,7.0,89,0.01,,,0.08,VWS V14.01,2013-05-20 14:42:00,
2013-05-20 10:47:00,78.1,73.2,30.06,SSE,150,2.0,2.0,85,0.00,,,0.08,VWS V14.01,2013-05-20 14:47:00,
2013-05-20 10:52:00,79.3,74.4,30.06,SE,139,1.0,3.0,85,0.00,,,0.08,VWS V14.01,2013-05-20 14:52:00,
2013-05-20 10:57:00,80.4,76.2,30.07,ESE,121,0.0,3.0,87,0.00,,,0.08,VWS V14.01,2013-05-20 14:57:00,
2013-05-20 11:02:00,80.6,74.6,30.06,ESE,111,0.0,8.0,82,0.00,,,0.08,VWS V14.01,2013-05-20 15:02:00,
2013-05-20 11:07:00,80.7,74.7,30.06,NE,42,0.0,8.0,82,0.00,,,0.08,VWS V14.01,2013-05-20 15:07:00,
2013-05-20 11:12:00,80.9,74.9,30.06,SSE,148,1.0,8.0,82,0.00,,,0.08,VWS V14.01,2013-05-20 15:12:00,
2013-05-20 11:17:00,81.3,74.5,30.05,South,178,0.0,5.0,80,0.00,,,0.08,VWS V14.01,2013-05-20 15:17:00,
2013-05-20 11:22:00,82.0,75.2,30.06,ESE,112,2.0,5.0,80,0.00,,,0.08,VWS V14.01,2013-05-20 15:22:00,
2013-05-20 11:27:00,81.7,74.9,30.07,East,99,2.0,9.0,80,0.00,,,0.08,VWS V14.01,2013-05-20 15:27:00,
2013-05-20 11:32:00,81.3,74.9,30.07,ENE,77,2.0,10.0,81,0.00,,,0.08,VWS V14.01,2013-05-20 15:32:00,
2013-05-20 11:37:00,80.5,73.0,30.06,East,90,3.0,10.0,78,0.00,,,0.08,VWS V14.01,2013-05-20 15:37:00,
2013-05-20 11:42:00,79.8,71.2,30.07,ESE,113,1.0,10.0,75,0.00,,,0.08,VWS V14.01,2013-05-20 15:42:00,
2013-05-20 11:47:00,79.4,71.6,30.06,East,95,1.0,7.0,77,0.00,,,0.08,VWS V14.01,2013-05-20 15:47:00,
2013-05-20 11:52:00,79.3,72.6,30.06,ENE,61,2.0,7.0,80,0.00,,,0.08,VWS V14.01,2013-05-20 15:52:00,
2013-05-20 11:57:00,79.3,73.7,30.06,ESE,106,0.0,7.0,83,0.00,,,0.08,VWS V14.01,2013-05-20 15:57:00,
2013-05-20 12:02:00,79.3,74.4,30.06,NE,51,2.0,4.0,85,0.00,,,0.08,VWS V14.01,2013-05-20 16:02:00,
2013-05-20 12:07:00,79.4,75.2,30.06,ENE,77,3.0,6.0,87,0.00,,,0.08,VWS V14.01,2013-05-20 16:07:00,
2013-05-20 12:12:00,79.3,75.4,30.06,East,79,3.0,7.0,88,0.00,,,0.08,VWS V14.01,2013-05-20 16:12:00,
2013-05-20 12:17:00,79.3,75.4,30.06,SE,142,1.0,6.0,88,0.00,,,0.08,VWS V14.01,2013-05-20 16:17:00,
2013-05-20 12:22:00,79.4,75.9,30.06,ESE,108,1.0,6.0,89,0.00,,,0.08,VWS V14.01,2013-05-20 16:22:00,
2013-05-20 12:27:00,79.2,75.0,30.07,ESE,115,0.0,6.0,87,0.00,,,0.08,VWS V14.01,2013-05-20 16:27:00,
2013-05-20 12:32:00,77.8,71.5,30.06,SSW,194,4.0,11.0,81,0.00,,,0.08,VWS V14.01,2013-05-20 16:32:00,
2013-05-20 12:37:00,76.7,71.2,30.07,SSW,202,4.0,11.0,83,0.01,,,0.09,VWS V14.01,2013-05-20 16:37:00,
2013-05-20 12:42:00,76.2,71.0,30.05,South,180,0.0,11.0,84,0.01,,,0.09,VWS V14.01,2013-05-20 16:42:00,
2013-05-20 12:47:00,76.4,71.6,30.06,South,179,3.0,4.0,85,0.01,,,0.09,VWS V14.01,2013-05-20 16:47:00,
2013-05-20 12:52:00,76.5,72.0,30.06,South,188,4.0,5.0,86,0.01,,,0.09,VWS V14.01,2013-05-20 16:52:00,
2013-05-20 12:57:00,76.7,72.9,30.06,SSW,195,7.0,7.0,88,0.01,,,0.09,VWS V14.01,2013-05-20 16:57:00,
2013-05-20 13:02:00,76.3,73.2,30.06,SW,223,3.0,5.0,90,0.01,,,0.09,VWS V14.01,2013-05-20 17:02:00,
2013-05-20 13:07:00,75.8,72.7,30.05,SW,223,4.0,6.0,90,0.01,,,0.09,VWS V14.01,2013-05-20 17:07:00,
2013-05-20 13:12:00,75.6,72.5,30.06,SW,233,1.0,6.0,90,0.01,,,0.09,VWS V14.01,2013-05-20 17:12:00,
2013-05-20 13:17:00,75.7,72.9,30.07,NNE,25,2.0,5.0,91,0.04,,,0.12,VWS V14.01,2013-05-20 17:17:00,
2013-05-20 13:22:00,75.3,72.5,30.07,East,82,3.0,8.0,91,0.10,,,0.19,VWS V14.01,2013-05-20 17:22:00,
2013-05-20 13:27:00,73.9,70.5,30.06,NE,36,3.0,8.0,89,0.28,,,0.36,VWS V14.01,2013-05-20 17:27:00,
2013-05-20 13:32:00,73.1,70.6,30.06,SE,146,2.0,5.0,92,0.48,,,0.56,VWS V14.01,2013-05-20 17:32:00,
2013-05-20 13:37:00,73.0,70.9,30.06,NE,36,4.0,11.0,93,0.65,,,0.73,VWS V14.01,2013-05-20 17:37:00,
2013-05-20 13:42:00,72.8,71.0,30.06,NE,40,2.0,11.0,94,0.82,,,0.90,VWS V14.01,2013-05-20 17:42:00,
2013-05-20 13:47:00,72.9,71.4,30.07,NNE,22,4.0,4.0,95,0.90,,,0.99,VWS V14.01,2013-05-20 17:47:00,
2013-05-20 13:52:00,72.8,71.3,30.07,NE,35,3.0,5.0,95,0.95,,,1.04,VWS V14.01,2013-05-20 17:52:00,
2013-05-20 13:57:00,73.1,71.6,30.07,NNE,17,2.0,5.0,95,0.99,,,1.08,VWS V14.01,2013-05-20 17:57:00,
2013-05-20 14:02:00,73.4,71.9,30.07,NE,40,1.0,4.0,95,1.05,,,1.14,VWS V14.01,2013-05-20 18:02:00,
2013-05-20 14:07:00,73.5,72.0,30.07,East,80,2.0,4.0,95,1.07,,,1.16,VWS V14.01,2013-05-20 18:07:00,
2013-05-20 14:12:00,73.4,71.9,30.06,SSE,161,3.0,6.0,95,1.08,,,1.17,VWS V14.01,2013-05-20 18:12:00,
2013-05-20 14:17:00,73.4,71.9,30.06,ESE,109,2.0,3.0,95,1.08,,,1.18,VWS V14.01,2013-05-20 18:17:00,
2013-05-20 14:22:00,73.3,71.8,30.06,South,173,3.0,8.0,95,1.10,,,1.20,VWS V14.01,2013-05-20 18:22:00,
2013-05-20 14:27:00,73.1,71.6,30.06,East,84,2.0,8.0,95,1.13,,,1.23,VWS V14.01,2013-05-20 18:27:00,
2013-05-20 14:32:00,73.0,71.5,30.05,ESE,106,4.0,7.0,95,0.76,,,1.24,VWS V14.01,2013-05-20 18:32:00,
2013-05-20 14:37:00,73.0,71.5,30.05,ENE,62,0.0,7.0,95,0.77,,,1.25,VWS V14.01,2013-05-20 18:37:00,
2013-05-20 14:42:00,73.0,71.5,30.04,East,96,1.0,7.0,95,0.77,,,1.25,VWS V14.01,2013-05-20 18:42:00,
2013-05-20 14:47:00,73.0,71.5,30.05,ENE,65,1.0,3.0,95,0.29,,,1.25,VWS V14.01,2013-05-20 18:47:00,
2013-05-20 14:52:00,73.2,71.7,30.05,SE,138,4.0,8.0,95,0.29,,,1.25,VWS V14.01,2013-05-20 18:52:00,
2013-05-20 14:57:00,73.3,71.8,30.05,ESE,112,0.0,8.0,95,0.29,,,1.25,VWS V14.01,2013-05-20 18:57:00,
2013-05-20 15:02:00,73.9,72.4,30.05,NE,55,0.0,4.0,95,0.13,,,1.25,VWS V14.01,2013-05-20 19:02:00,
2013-05-20 15:07:00,74.3,72.8,30.05,ENE,67,0.0,5.0,95,0.13,,,1.25,VWS V14.01,2013-05-20 19:07:00,
2013-05-20 15:12:00,74.5,72.7,30.05,ESE,107,0.0,5.0,94,0.13,,,1.25,VWS V14.01,2013-05-20 19:12:00,
2013-05-20 15:17:00,74.9,73.4,30.04,SE,140,1.0,2.0,95,0.08,,,1.25,VWS V14.01,2013-05-20 19:17:00,
2013-05-20 15:22:00,75.3,73.8,30.04,East,98,0.0,2.0,95,0.08,,,1.25,VWS V14.01,2013-05-20 19:22:00,
2013-05-20 15:27:00,75.3,73.5,30.05,SE,134,0.0,3.0,94,0.08,,,1.25,VWS V14.01,2013-05-20 19:27:00,
2013-05-20 15:32:00,75.4,73.6,30.04,SE,134,0.0,0.0,94,0.01,,,1.25,VWS V14.01,2013-05-20 19:32:00,
2013-05-20 15:37:00,75.8,73.9,30.04,SE,134,0.0,1.0,94,0.01,,,1.25,VWS V14.01,2013-05-20 19:37:00,
2013-05-20 15:42:00,75.9,74.1,30.04,East,98,0.0,2.0,94,0.01,,,1.25,VWS V14.01,2013-05-20 19:42:00,
2013-05-20 15:47:00,76.0,74.2,30.04,ENE,66,1.0,1.0,94,0.00,,,1.25,VWS V14.01,2013-05-20 19:47:00,
2013-05-20 15:52:00,75.9,74.1,30.04,ENE,67,0.0,1.0,94,0.00,,,1.25,VWS V14.01,2013-05-20 19:52:00,
2013-05-20 15:57:00,75.7,73.8,30.04,ESE,114,0.0,2.0,94,0.00,,,1.25,VWS V14.01,2013-05-20 19:57:00,
2013-05-20 16:02:00,75.5,73.7,30.04,ESE,108,3.0,3.0,94,0.00,,,1.25,VWS V14.01,2013-05-20 20:02:00,
2013-05-20 16:07:00,75.4,73.2,30.04,ESE,105,0.0,5.0,93,0.00,,,1.25,VWS V14.01,2013-05-20 20:07:00,
2013-05-20 16:12:00,75.3,73.5,30.03,ESE,117,2.0,6.0,94,0.00,,,1.25,VWS V14.01,2013-05-20 20:12:00,
2013-05-20 16:17:00,75.4,73.6,30.03,East,92,0.0,4.0,94,0.00,,,1.25,VWS V14.01,2013-05-20 20:17:00,
2013-05-20 16:22:00,75.3,73.5,30.02,North,360,1.0,5.0,94,0.00,,,1.25,VWS V14.01,2013-05-20 20:22:00,
2013-05-20 16:27:00,75.2,73.4,30.01,East,88,2.0,7.0,94,0.00,,,1.25,VWS V14.01,2013-05-20 20:27:00,
2013-05-20 16:32:00,75.2,73.4,30.01,East,90,0.0,3.0,94,0.00,,,1.25,VWS V14.01,2013-05-20 20:32:00,
2013-05-20 16:37:00,75.2,73.4,30.01,East,91,0.0,4.0,94,0.00,,,1.25,VWS V14.01,2013-05-20 20:37:00,
2013-05-20 16:42:00,75.2,73.4,30.01,ENE,75,0.0,7.0,94,0.00,,,1.25,VWS V14.01,2013-05-20 20:42:00,
2013-05-20 16:47:00,75.3,73.5,30.01,ESE,109,1.0,3.0,94,0.00,,,1.25,VWS V14.01,2013-05-20 20:47:00,
2013-05-20 16:52:00,75.4,73.6,30.01,East,88,0.0,4.0,94,0.00,,,1.25,VWS V14.01,2013-05-20 20:52:00,
2013-05-20 16:57:00,75.4,73.6,30.01,East,85,0.0,5.0,94,0.01,,,1.26,VWS V14.01,2013-05-20 20:57:00,
2013-05-20 17:02:00,75.5,73.7,30.01,East,101,0.0,1.0,94,0.01,,,1.26,VWS V14.01,2013-05-20 21:02:00,
2013-05-20 17:07:00,75.5,73.7,30.01,SE,127,0.0,2.0,94,0.01,,,1.26,VWS V14.01,2013-05-20 21:07:00,
2013-05-20 17:12:00,75.6,73.8,30.01,SE,127,0.0,2.0,94,0.01,,,1.26,VWS V14.01,2013-05-20 21:12:00,
2013-05-20 17:17:00,75.7,73.8,30.01,ESE,113,0.0,2.0,94,0.01,,,1.26,VWS V14.01,2013-05-20 21:17:00,
2013-05-20 17:22:00,75.7,73.8,30.00,SE,126,1.0,3.0,94,0.01,,,1.26,VWS V14.01,2013-05-20 21:22:00,
2013-05-20 17:27:00,75.7,73.8,30.00,ESE,113,0.0,3.0,94,0.01,,,1.26,VWS V14.01,2013-05-20 21:27:00,
2013-05-20 17:32:00,75.8,73.9,30.00,ESE,103,1.0,3.0,94,0.01,,,1.26,VWS V14.01,2013-05-20 21:32:00,
2013-05-20 17:37:00,75.9,74.1,29.99,ESE,120,0.0,4.0,94,0.01,,,1.26,VWS V14.01,2013-05-20 21:37:00,
2013-05-20 17:42:00,76.0,74.2,29.99,SSE,150,3.0,4.0,94,0.01,,,1.26,VWS V14.01,2013-05-20 21:42:00,
2013-05-20 17:47:00,76.0,74.2,29.99,SSE,156,3.0,6.0,94,0.01,,,1.26,VWS V14.01,2013-05-20 21:47:00,
2013-05-20 17:52:00,76.1,74.2,29.99,SE,141,3.0,7.0,94,0.01,,,1.26,VWS V14.01,2013-05-20 21:52:00,
2013-05-20 17:57:00,76.3,74.1,29.99,SSE,168,0.0,7.0,93,0.01,,,1.26,VWS V14.01,2013-05-20 21:57:00,
2013-05-20 18:02:00,76.4,74.2,29.99,SE,124,0.0,3.0,93,0.00,,,1.26,VWS V14.01,2013-05-20 22:02:00,
2013-05-20 18:07:00,76.5,74.3,29.99,ESE,119,0.0,4.0,93,0.00,,,1.26,VWS V14.01,2013-05-20 22:07:00,
2013-05-20 18:12:00,76.5,74.3,29.99,ESE,119,0.0,4.0,93,0.00,,,1.26,VWS V14.01,2013-05-20 22:12:00,
2013-05-20 18:17:00,76.5,74.3,30.00,ESE,119,0.0,3.0,93,0.00,,,1.26,VWS V14.01,2013-05-20 22:17:00,
2013-05-20 18:22:00,76.5,74.7,30.00,NNW,336,3.0,4.0,94,0.00,,,1.26,VWS V14.01,2013-05-20 22:22:00,
2013-05-20 18:27:00,76.6,74.8,29.99,NNW,336,0.0,4.0,94,0.00,,,1.26,VWS V14.01,2013-05-20 22:27:00,
2013-05-20 18:32:00,76.6,74.8,29.99,NNW,342,0.0,3.0,94,0.00,,,1.26,VWS V14.01,2013-05-20 22:32:00,
2013-05-20 18:37:00,76.7,74.8,29.99,NNW,342,0.0,3.0,94,0.00,,,1.26,VWS V14.01,2013-05-20 22:37:00,
2013-05-20 18:42:00,76.6,74.8,29.98,NNE,21,1.0,5.0,94,0.00,,,1.26,VWS V14.01,2013-05-20 22:42:00,
2013-05-20 18:47:00,76.7,74.8,29.98,NNE,13,2.0,4.0,94,0.00,,,1.26,VWS V14.01,2013-05-20 22:47:00,
2013-05-20 18:52:00,76.7,74.8,29.98,NNE,16,0.0,4.0,94,0.00,,,1.26,VWS V14.01,2013-05-20 22:52:00,
2013-05-20 18:57:00,76.8,74.9,29.98,NNE,26,0.0,4.0,94,0.00,,,1.26,VWS V14.01,2013-05-20 22:57:00,
2013-05-20 19:02:00,76.7,74.8,29.98,ENE,76,0.0,2.0,94,0.00,,,1.26,VWS V14.01,2013-05-20 23:02:00,
2013-05-20 19:07:00,76.7,74.8,29.98,ENE,62,1.0,3.0,94,0.00,,,1.26,VWS V14.01,2013-05-20 23:07:00,
2013-05-20 19:12:00,76.7,74.8,29.98,ENE,62,1.0,3.0,94,0.00,,,1.26,VWS V14.01,2013-05-20 23:12:00,
2013-05-20 19:17:00,76.7,74.8,29.98,NNE,17,3.0,4.0,94,0.00,,,1.26,VWS V14.01,2013-05-20 23:17:00,
2013-05-20 19:22:00,76.6,74.8,29.98,North,5,1.0,4.0,94,0.00,,,1.26,VWS V14.01,2013-05-20 23:22:00,
2013-05-20 19:27:00,76.5,74.7,29.99,North,11,2.0,5.0,94,0.01,,,1.27,VWS V14.01,2013-05-20 23:27:00,
2013-05-20 19:32:00,76.5,74.7,29.99,ENE,65,0.0,1.0,94,0.01,,,1.27,VWS V14.01,2013-05-20 23:32:00,
2013-05-20 19:37:00,76.4,74.6,29.99,ENE,75,0.0,5.0,94,0.01,,,1.27,VWS V14.01,2013-05-20 23:37:00,
2013-05-20 19:42:00,76.4,74.6,29.99,ENE,71,0.0,5.0,94,0.01,,,1.27,VWS V14.01,2013-05-20 23:42:00,
2013-05-20 19:47:00,76.4,74.6,29.99,ENE,71,0.0,0.0,94,0.01,,,1.27,VWS V14.01,2013-05-20 23:47:00,
2013-05-20 19:52:00,76.3,74.4,30.00,ENE,71,0.0,1.0,94,0.01,,,1.27,VWS V14.01,2013-05-20 23:52:00,
2013-05-20 19:57:00,76.3,74.4,30.00,ENE,70,2.0,3.0,94,0.01,,,1.27,VWS V14.01,2013-05-20 23:57:00,
2013-05-20 20:02:00,76.3,74.4,30.01,NW,309,4.0,5.0,94,0.01,,,1.27,VWS V14.01,2013-05-21 00:02:00,
2013-05-20 20:07:00,76.2,74.0,30.01,NW,315,6.0,6.0,93,0.01,,,1.27,VWS V14.01,2013-05-21 00:07:00,
2013-05-20 20:12:00,76.3,74.1,30.02,NW,324,3.0,6.0,93,0.01,,,1.27,VWS V14.01,2013-05-21 00:12:00,
2013-05-20 20:17:00,76.3,74.1,30.02,NNW,329,4.0,5.0,93,0.01,,,1.27,VWS V14.01,2013-05-21 00:17:00,
2013-05-20 20:22:00,76.4,74.2,30.02,NNW,327,5.0,6.0,93,0.01,,,1.27,VWS V14.01,2013-05-21 00:22:00,
2013-05-20 20:27:00,76.5,74.3,30.02,NW,323,4.0,7.0,93,0.01,,,1.27,VWS V14.01,2013-05-21 00:27:00,
2013-05-20 20:32:00,76.6,74.4,30.02,NNW,347,3.0,5.0,93,0.00,,,1.27,VWS V14.01,2013-05-21 00:32:00,
2013-05-20 20:45:00,74.8,70.7,30.03,NNW,338,4.0,25.0,87,0.00,,,0.01,VWS V14.01,2013-05-21 00:45:00,
2013-05-20 21:00:00,74.8,70.7,30.03,NNW,338,4.0,25.0,87,0.00,,,0.01,VWS V14.01,2013-05-21 01:00:00,
2013-05-20 21:05:00,71.1,68.7,30.05,ESE,112,3.0,5.0,92,0.11,,,1.38,VWS V14.01,2013-05-21 01:05:00,
2013-05-20 21:10:00,70.8,68.7,30.05,East,95,2.0,5.0,93,0.20,,,1.47,VWS V14.01,2013-05-21 01:10:00,
2013-05-20 21:15:00,70.6,68.5,30.05,ENE,60,2.0,3.0,93,0.27,,,1.54,VWS V14.01,2013-05-21 01:15:00,
2013-05-20 21:20:00,70.6,68.8,30.05,NE,40,2.0,4.0,94,0.31,,,1.58,VWS V14.01,2013-05-21 01:20:00,
2013-05-20 21:25:00,70.8,69.3,30.06,NE,40,1.0,4.0,95,0.33,,,1.60,VWS V14.01,2013-05-21 01:25:00,
2013-05-20 21:30:00,71.0,69.5,30.06,NE,40,0.0,2.0,95,0.34,,,1.61,VWS V14.01,2013-05-21 01:30:00,
2013-05-20 21:35:00,71.2,69.7,30.06,NE,42,2.0,2.0,95,0.35,,,1.62,VWS V14.01,2013-05-21 01:35:00,
2013-05-20 21:40:00,71.3,69.8,30.06,NE,40,0.0,4.0,95,0.35,,,1.62,VWS V14.01,2013-05-21 01:40:00,
2013-05-20 21:45:00,71.4,69.9,30.06,East,82,0.0,0.0,95,1.61,,,1.62,VWS V14.01,2013-05-21 01:45:00,
2013-05-20 21:50:00,71.4,69.9,30.06,East,96,0.0,2.0,95,1.62,,,1.63,VWS V14.01,2013-05-21 01:50:00,
2013-05-20 21:55:00,71.5,70.0,30.06,East,96,0.0,5.0,95,1.62,,,1.63,VWS V14.01,2013-05-21 01:55:00,
2013-05-20 22:00:00,71.6,70.4,30.06,East,94,2.0,3.0,96,0.27,,,1.63,VWS V14.01,2013-05-21 02:00:00,
2013-05-20 22:05:00,71.6,70.4,30.06,SSE,159,1.0,7.0,96,0.27,,,1.63,VWS V14.01,2013-05-21 02:05:00,
2013-05-20 22:10:00,71.6,70.4,30.05,ESE,121,2.0,10.0,96,0.27,,,1.63,VWS V14.01,2013-05-21 02:10:00,
2013-05-20 22:15:00,71.7,70.5,30.06,East,96,3.0,3.0,96,0.10,,,1.63,VWS V14.01,2013-05-21 02:15:00,
2013-05-20 22:20:00,71.7,70.5,30.06,ENE,67,0.0,5.0,96,0.10,,,1.63,VWS V14.01,2013-05-21 02:20:00,
2013-05-20 22:25:00,71.7,70.5,30.07,ENE,69,1.0,5.0,96,0.10,,,1.63,VWS V14.01,2013-05-21 02:25:00,
2013-05-20 22:30:00,71.7,70.5,30.07,NE,55,2.0,2.0,96,0.02,,,1.63,VWS V14.01,2013-05-21 02:30:00,
2013-05-20 22:35:00,71.7,70.5,30.06,NE,46,0.0,3.0,96,0.02,,,1.63,VWS V14.01,2013-05-21 02:35:00,
2013-05-20 22:40:00,71.7,70.5,30.06,NNE,21,0.0,4.0,96,0.02,,,1.63,VWS V14.01,2013-05-21 02:40:00,
2013-05-20 22:45:00,71.8,70.6,30.06,South,172,3.0,3.0,96,0.01,,,1.63,VWS V14.01,2013-05-21 02:45:00,
2013-05-20 22:50:00,71.9,70.4,30.06,South,172,0.0,3.0,95,0.02,,,1.64,VWS V14.01,2013-05-21 02:50:00,
2013-05-20 22:55:00,71.9,70.4,30.05,South,171,0.0,3.0,95,0.02,,,1.64,VWS V14.01,2013-05-21 02:55:00,
2013-05-20 23:00:00,71.9,70.4,30.05,South,169,0.0,0.0,95,0.01,,,1.64,VWS V14.01,2013-05-21 03:00:00,
2013-05-20 23:05:00,72.0,70.5,30.05,South,169,0.0,2.0,95,0.01,,,1.64,VWS V14.01,2013-05-21 03:05:00,
2013-05-20 23:10:00,72.0,70.5,30.05,South,169,0.0,2.0,95,0.01,,,1.64,VWS V14.01,2013-05-21 03:10:00,
2013-05-20 23:15:00,72.0,70.5,30.06,South,169,0.0,0.0,95,0.01,,,1.64,VWS V14.01,2013-05-21 03:15:00,
2013-05-20 23:20:00,72.1,70.9,30.06,South,169,0.0,1.0,96,0.01,,,1.64,VWS V14.01,2013-05-21 03:20:00,
2013-05-20 23:25:00,72.2,71.0,30.06,SSE,152,1.0,5.0,96,0.01,,,1.64,VWS V14.01,2013-05-21 03:25:00,
2013-05-20 23:30:00,72.1,70.6,30.06,SE,140,0.0,1.0,95,0.01,,,1.64,VWS V14.01,2013-05-21 03:30:00,
2013-05-20 23:35:00,72.1,70.6,30.06,SE,140,0.0,1.0,95,0.01,,,1.64,VWS V14.01,2013-05-21 03:35:00,
2013-05-20 23:40:00,72.3,71.1,30.06,SSE,161,2.0,4.0,96,0.01,,,1.64,VWS V14.01,2013-05-21 03:40:00,
2013-05-20 23:45:00,72.3,71.1,30.06,SSE,161,0.0,0.0,96,0.01,,,1.64,VWS V14.01,2013-05-21 03:45:00,
2013-05-20 23:50:00,72.4,71.2,30.06,SSE,161,0.0,2.0,96,0.01,,,1.64,VWS V14.01,2013-05-21 03:50:00,
2013-05-20 23:55:00,72.6,71.4,30.06,South,173,0.0,4.0,96,0.01,,,1.64,VWS V14.01,2013-05-21 03:55:00,